Chandler Field
KAXN : rendu visible

Aérodrome :











RETROUVEZ-NOUS SUR...

 
LOGIN :

S'inscrire | Disclaimer

   EN    FR    IT 

 









Légende :    VFR   VFR Marginal   IFR   IFR Intensif   IFR Très Intensif
Visi : 
Plafond : 
>= 8 km
>= 3000ft
5 à 8 km
1000 à 3000 ft
1500m à 5 km
500 à 1000 ft
800 à 1500m
200 à 500 ft
< 800m
< 200 ft
Symboles :   Orages  Brouillard  Fortes neiges  Fortes précipitations  Vent > 20 kt






- Altitude de l'aérodrome : 1425 ft


KAXN - Chandler Field

DERNIER METAR :
  • 061612Z AUTO 30005KT 10SM FEW010 M07/M11 A3033 RMK AO2 T10721106

METARs EXPIRÉS :
  • 061553Z AUTO 30007KT 10SM OVC010 M07/M11 A3034 RMK AO2 SLP302 T10721106
  • 061453Z AUTO 30005KT 10SM OVC012 M08/M11 A3034 RMK AO2 SLP300 T10831111 51012
  • 061353Z AUTO 32005KT 10SM OVC013 M09/M11 A3033 RMK AO2 SLP298 T10891111

TAF KAXN
Valide du 06 à 12h jusqu'au 07 à 12h UTC


061123Z 0612/0712 33006KT P6SM OVC013
FM061600 18005KT P6SM SCT015 SCT200
FM061800 20009KT P6SM BKN025 OVC050
FM070300 19009KT P6SM SCT007 OVC015



MET'MAP, la Météo Aéronautique d'un coup d'oeil ! - Copyright ORBIFLY Décembre 2007 - Disclaimer

ORBIFLY MET'MAP TEAM :

Programmation & Développement : Alexandra Zaïnal
Sur une idée originale de : Baudouin d'Aumeries
Assistance à la programmation : Marc-Olivier Méhu
Soutien technique & logistique : Manuel Goepfert

Contact : metmap@orbifly.com




SOURCES & CREDITS :

   NOAA       Earth
Advisory